EGPH/EDI METAR and TAF weather

Enter ICAO airport designator
Station Type Date Time Source
EGPH METAR 2020/09/22 20:20 UTC NOAA

EGPH 222020Z 23013KT 7000 -RA BKN011 OVC023 14/13 Q0996


Station Type Date Time Source
EGPH Decoded METAR 2020/09/22 20:20 UTC NOAA

Edinburgh Airport, United Kingdom (EGPH) 55-57N 003-21W 0M
Sep 22, 2020 - 04:20 PM EDT / 2020.09.22 2020 UTC
Wind: from the SW (230 degrees) at 15 MPH (13 KT):0
Visibility: 4 mile(s):0
Sky conditions: overcast
Weather: light rain
Temperature: 57 F (14 C)
Dew Point: 55 F (13 C)
Relative Humidity: 93%
Pressure (altimeter): 29.41 in. Hg (0996 hPa)
ob: EGPH 222020Z 23013KT 7000 -RA BKN011 OVC023 14/13 Q0996
cycle: 20

Station Type Date Time Source
EGPH TAF 2020/09/22 18:09 UTC NOAA

TAF EGPH 221700Z 2218/2318 22016KT 9999 SCT018
TEMPO 2218/2223 6000 RA BKN012 PROB30
TEMPO 2218/2222 23020G30KT 4000 RADZ BKN008
BECMG 2220/2223 27008KT PROB30
TEMPO 2312/2318 6000 SHRA

Example: see airport list